Time;durP1;ratioP1;P1;durP2;ratioP2;P2;SDS_P1;SDS_P2;PMS_P1;PMS_P2;Temp;Humidity;BMP_temperature;BMP_pressure;BME280_temperature;BME280_humidity;BME280_pressure;Samples;Min_cycle;Max_cycle;Signal;HPM_P1;HPM_P2
2023/06/05 00:00:41;;;;;;;;;;;12.60;99.90;;;;;;6069931;23;19921;-75
2023/06/05 00:03:07;;;;;;;;;;;12.50;99.90;;;;;;6096832;23;20691;-75
2023/06/05 00:05:32;;;;;;;;;;;12.90;99.90;;;;;;6071303;23;19922;-75
2023/06/05 00:07:58;;;;;;;;;;;12.50;99.90;;;;;;6096079;23;19922;-75
2023/06/05 00:10:24;;;;;;;;;;;12.40;99.90;;;;;;6073105;23;19926;-75
2023/06/05 00:12:50;;;;;;;;;;;12.50;99.90;;;;;;6098746;23;19968;-74
2023/06/05 00:15:15;;;;;;;;;;;12.50;99.90;;;;;;6097947;23;19925;-75
2023/06/05 00:17:41;;;;;;;;;;;12.50;99.90;;;;;;6073444;23;19921;-75
2023/06/05 00:20:09;;;;;;;;;;;12.40;99.90;;;;;;6098277;23;20001;-75
2023/06/05 00:22:35;;;;;;;;;;;12.50;99.90;;;;;;6098078;23;19922;-75
2023/06/05 00:25:01;;;;;;;;;;;12.50;99.90;;;;;;6098302;23;19921;-75
2023/06/05 00:27:27;;;;;;;;;;;12.50;99.90;;;;;;6073166;23;19928;-75
2023/06/05 00:29:53;;;;;;;;;;;12.50;99.90;;;;;;6071217;23;19921;-75
2023/06/05 00:32:18;;;;;;;;;;;12.50;99.90;;;;;;6073035;23;20335;-75
2023/06/05 00:34:44;;;;;;;;;;;12.40;99.90;;;;;;6098988;23;19921;-75
2023/06/05 00:37:11;;;;;;;;;;;12.40;99.90;;;;;;6071583;23;20250;-75
2023/06/05 00:39:36;;;;;;;;;;;12.40;99.90;;;;;;6098497;23;19921;-75
2023/06/05 00:42:02;;;;;;;;;;;12.40;99.90;;;;;;6072594;23;19928;-75
2023/06/05 00:44:27;;;;;;;;;;;12.40;99.90;;;;;;6071717;23;19932;-75
2023/06/05 00:46:53;;;;;;;;;;;12.40;99.90;;;;;;6098031;23;19964;-75
2023/06/05 00:49:19;;;;;;;;;;;12.40;99.90;;;;;;6072229;23;19985;-75
2023/06/05 00:51:45;;;;;;;;;;;12.40;99.90;;;;;;6072087;23;19929;-75
2023/06/05 00:54:13;;;;;;;;;;;12.40;99.90;;;;;;6072160;23;20335;-75
2023/06/05 00:56:40;;;;;;;;;;;12.40;99.90;;;;;;6097269;23;20343;-75
2023/06/05 00:59:06;;;;;;;;;;;12.80;99.90;;;;;;6072340;23;20250;-75
2023/06/05 01:01:32;;;;;;;;;;;12.40;99.90;;;;;;6098278;23;20004;-75
2023/06/05 01:04:01;;;;;;;;;;;12.40;99.90;;;;;;6071570;23;19922;-75
2023/06/05 01:06:34;;;;;;;;;;;12.30;99.90;;;;;;6072574;23;19921;-75
2023/06/05 01:09:00;;;;;;;;;;;12.40;99.90;;;;;;6098163;23;19968;-75
2023/06/05 01:11:29;;;;;;;;;;;12.40;99.90;;;;;;6071893;23;19921;-75
2023/06/05 01:14:00;;;;;;;;;;;12.40;99.90;;;;;;6072142;23;19921;-75
2023/06/05 01:16:30;;;;;;;;;;;12.40;99.90;;;;;;6098230;23;19976;-75
2023/06/05 01:19:02;;;;;;;;;;;12.30;99.90;;;;;;6097040;23;20246;-74
2023/06/05 01:21:31;;;;;;;;;;;12.30;99.90;;;;;;6072556;23;19921;-75
2023/06/05 01:23:58;;;;;;;;;;;12.30;99.90;;;;;;6098029;23;20258;-76
2023/06/05 01:26:28;;;;;;;;;;;12.40;99.90;;;;;;6071207;23;19925;-75
2023/06/05 01:28:54;;;;;;;;;;;12.40;99.90;;;;;;6097820;23;20277;-75
2023/06/05 01:31:21;;;;;;;;;;;12.40;99.90;;;;;;6072621;23;19928;-75
2023/06/05 01:33:50;;;;;;;;;;;12.40;99.90;;;;;;6097304;23;19925;-74
2023/06/05 01:36:16;;;;;;;;;;;12.40;99.90;;;;;;6097569;23;20330;-75
2023/06/05 01:38:43;;;;;;;;;;;12.50;99.90;;;;;;6071614;23;19922;-75
2023/06/05 01:41:12;;;;;;;;;;;12.40;99.90;;;;;;6071985;23;20287;-75
2023/06/05 01:43:38;;;;;;;;;;;12.50;99.90;;;;;;6072287;23;19963;-75
2023/06/05 01:46:07;;;;;;;;;;;12.40;99.90;;;;;;6096817;23;19925;-75
2023/06/05 01:48:33;;;;;;;;;;;12.40;99.90;;;;;;6072217;23;19988;-75
2023/06/05 01:51:00;;;;;;;;;;;12.50;99.90;;;;;;6096981;23;19921;-75
2023/06/05 01:53:29;;;;;;;;;;;12.40;99.90;;;;;;6068177;23;19918;-75
2023/06/05 01:55:58;;;;;;;;;;;12.40;99.90;;;;;;6097401;23;19977;-75
2023/06/05 01:58:24;;;;;;;;;;;12.40;99.90;;;;;;6072260;23;19925;-75
2023/06/05 02:00:50;;;;;;;;;;;12.40;99.90;;;;;;6070810;23;19972;-75
2023/06/05 02:03:16;;;;;;;;;;;12.30;99.90;;;;;;6072184;23;19922;-75
2023/06/05 02:05:41;;;;;;;;;;;12.30;99.90;;;;;;6072551;23;19925;-75
2023/06/05 02:08:09;;;;;;;;;;;12.30;99.90;;;;;;6094831;23;19922;-75
2023/06/05 02:10:35;;;;;;;;;;;12.30;99.90;;;;;;6097565;23;19921;-75
2023/06/05 02:13:01;;;;;;;;;;;12.30;99.90;;;;;;6071727;23;20282;-75
2023/06/05 02:15:28;;;;;;;;;;;12.30;99.90;;;;;;6071228;23;19921;-75
2023/06/05 02:17:54;;;;;;;;;;;12.30;99.90;;;;;;6097420;23;19960;-75
2023/06/05 02:20:21;;;;;;;;;;;12.30;99.90;;;;;;6072205;23;19921;-75
2023/06/05 02:22:51;;;;;;;;;;;12.30;99.90;;;;;;6096910;23;19968;-75
2023/06/05 02:25:26;;;;;;;;;;;12.30;99.90;;;;;;6097623;23;20041;-75
2023/06/05 02:27:52;;;;;;;;;;;12.30;99.90;;;;;;6070389;23;19928;-75
2023/06/05 02:30:18;;;;;;;;;;;12.30;99.90;;;;;;6097351;23;20335;-75
2023/06/05 02:32:48;;;;;;;;;;;12.30;99.90;;;;;;6097707;23;19921;-75
2023/06/05 02:35:14;;;;;;;;;;;12.30;99.90;;;;;;6096533;23;20673;-75
2023/06/05 02:37:43;;;;;;;;;;;12.30;99.90;;;;;;6071819;23;19928;-75
2023/06/05 02:40:12;;;;;;;;;;;12.40;99.90;;;;;;6097163;23;19921;-75
2023/06/05 02:42:38;;;;;;;;;;;12.40;99.90;;;;;;6096845;23;19976;-75
2023/06/05 02:45:04;;;;;;;;;;;12.40;99.90;;;;;;6096850;23;19926;-75
2023/06/05 02:47:29;;;;;;;;;;;12.40;99.90;;;;;;6071709;23;19929;-75
2023/06/05 02:49:56;;;;;;;;;;;12.40;99.90;;;;;;6070723;23;19953;-75
2023/06/05 02:52:21;;;;;;;;;;;12.40;99.90;;;;;;6071773;23;19921;-75
2023/06/05 02:54:47;;;;;;;;;;;12.40;99.90;;;;;;6071402;23;19925;-74
2023/06/05 02:57:17;;;;;;;;;;;12.40;99.90;;;;;;6096564;23;19957;-74
2023/06/05 02:59:43;;;;;;;;;;;12.60;99.90;;;;;;6071832;23;20056;-73
2023/06/05 03:02:08;;;;;;;;;;;12.40;99.90;;;;;;6071120;23;19989;-74
2023/06/05 03:04:34;;;;;;;;;;;12.40;99.90;;;;;;6070663;23;19921;-73
2023/06/05 03:07:03;;;;;;;;;;;12.40;99.90;;;;;;6097382;23;20338;-74
2023/06/05 03:09:30;;;;;;;;;;;12.40;99.90;;;;;;6074153;23;19921;-74
2023/06/05 03:11:55;;;;;;;;;;;12.40;99.90;;;;;;6099297;23;19917;-74
2023/06/05 03:14:24;;;;;;;;;;;12.40;99.90;;;;;;6098937;23;19922;-74
2023/06/05 03:16:50;;;;;;;;;;;12.40;99.90;;;;;;6097911;23;19921;-75
2023/06/05 03:19:16;;;;;;;;;;;12.40;99.90;;;;;;6097451;23;19952;-76
2023/06/05 03:21:42;;;;;;;;;;;12.40;99.90;;;;;;6071814;23;19921;-75
2023/06/05 03:24:12;;;;;;;;;;;12.40;99.90;;;;;;6069985;23;19928;-75
2023/06/05 03:26:38;;;;;;;;;;;12.40;99.90;;;;;;6071283;23;20052;-75
2023/06/05 03:29:05;;;;;;;;;;;12.40;99.90;;;;;;6096625;23;19925;-76
2023/06/05 03:31:30;;;;;;;;;;;12.30;99.90;;;;;;6096367;23;20331;-75
2023/06/05 03:33:58;;;;;;;;;;;12.30;99.90;;;;;;6070816;23;19970;-75
2023/06/05 03:36:23;;;;;;;;;;;12.30;99.90;;;;;;6071628;23;20334;-75
2023/06/05 03:38:56;;;;;;;;;;;12.30;99.90;;;;;;6069674;23;19925;-75
2023/06/05 03:41:22;;;;;;;;;;;12.40;99.90;;;;;;6096964;23;19945;-75
2023/06/05 03:43:49;;;;;;;;;;;12.40;99.90;;;;;;6095810;23;19921;-75
2023/06/05 03:46:20;;;;;;;;;;;12.30;99.90;;;;;;6094276;23;19921;-75
2023/06/05 03:48:46;;;;;;;;;;;12.30;99.90;;;;;;6071550;23;19928;-74
2023/06/05 03:51:18;;;;;;;;;;;12.40;99.90;;;;;;6098471;23;19917;-73
2023/06/05 03:53:54;;;;;;;;;;;12.40;99.90;;;;;;6070485;23;19926;-73
2023/06/05 03:56:23;;;;;;;;;;;12.30;99.90;;;;;;6098222;23;19956;-74
2023/06/05 03:58:49;;;;;;;;;;;12.30;99.90;;;;;;6071280;23;19925;-74
2023/06/05 04:01:17;;;;;;;;;;;12.40;99.90;;;;;;6098235;23;19924;-74
2023/06/05 04:03:43;;;;;;;;;;;12.30;99.90;;;;;;6073524;23;19922;-73
2023/06/05 04:06:08;;;;;;;;;;;12.40;99.90;;;;;;6097383;23;19928;-74
2023/06/05 04:08:34;;;;;;;;;;;12.40;99.90;;;;;;6098563;23;19917;-74
2023/06/05 04:11:00;;;;;;;;;;;12.40;99.90;;;;;;6073140;23;19922;-74
2023/06/05 04:13:34;;;;;;;;;;;12.40;99.90;;;;;;6096377;23;19928;-73
2023/06/05 04:16:06;;;;;;;;;;;12.40;99.90;;;;;;6097773;23;19929;-74
2023/06/05 04:18:31;;;;;;;;;;;12.40;99.90;;;;;;6097356;23;19961;-74
2023/06/05 04:20:57;;;;;;;;;;;12.40;99.90;;;;;;6070259;23;19925;-74
2023/06/05 04:23:22;;;;;;;;;;;12.40;99.90;;;;;;6070992;23;19937;-74
2023/06/05 04:25:49;;;;;;;;;;;12.40;99.90;;;;;;6070404;23;19985;-74
2023/06/05 04:28:15;;;;;;;;;;;12.40;99.90;;;;;;6095991;23;19996;-74
2023/06/05 04:30:45;;;;;;;;;;;12.50;99.90;;;;;;6070679;23;19925;-74
2023/06/05 04:33:11;;;;;;;;;;;12.50;99.90;;;;;;6095411;23;19928;-74
2023/06/05 04:35:36;;;;;;;;;;;12.50;99.90;;;;;;6069551;23;20254;-74
2023/06/05 04:38:02;;;;;;;;;;;12.50;99.90;;;;;;6070614;23;20394;-74
2023/06/05 04:40:31;;;;;;;;;;;12.50;99.90;;;;;;6071010;23;20385;-74
2023/06/05 04:42:58;;;;;;;;;;;12.60;99.90;;;;;;6094875;23;19924;-74
2023/06/05 04:45:24;;;;;;;;;;;12.70;99.90;;;;;;6070696;23;19925;-73
2023/06/05 04:47:51;;;;;;;;;;;12.50;99.90;;;;;;6070394;23;19921;-75
2023/06/05 04:50:27;;;;;;;;;;;12.60;99.90;;;;;;6069575;23;19921;-74
2023/06/05 04:52:56;;;;;;;;;;;12.60;99.90;;;;;;6070396;23;20338;-77
2023/06/05 04:55:21;;;;;;;;;;;12.70;99.90;;;;;;6071879;23;19921;-77
2023/06/05 04:57:48;;;;;;;;;;;12.70;99.90;;;;;;6070938;23;19972;-75
2023/06/05 05:00:14;;;;;;;;;;;12.70;99.90;;;;;;6072582;23;19929;-76
2023/06/05 05:02:43;;;;;;;;;;;12.70;99.90;;;;;;6071502;23;19921;-77
2023/06/05 05:05:13;;;;;;;;;;;12.80;99.90;;;;;;6072264;23;19921;-73
2023/06/05 05:07:45;;;;;;;;;;;12.80;99.90;;;;;;6071964;23;19921;-73
2023/06/05 05:10:14;;;;;;;;;;;12.90;99.90;;;;;;6097261;23;19944;-76
2023/06/05 05:12:42;;;;;;;;;;;12.80;99.90;;;;;;6098310;23;19928;-72
2023/06/05 05:15:08;;;;;;;;;;;12.90;99.90;;;;;;6071560;23;19933;-73
2023/06/05 05:17:34;;;;;;;;;;;12.90;99.90;;;;;;6071398;23;19925;-72
2023/06/05 05:19:59;;;;;;;;;;;12.90;99.90;;;;;;6097123;23;20223;-73
2023/06/05 05:22:26;;;;;;;;;;;12.90;99.90;;;;;;6071957;23;19996;-73
2023/06/05 05:24:51;;;;;;;;;;;12.90;99.90;;;;;;6070870;23;19956;-73
2023/06/05 05:27:17;;;;;;;;;;;12.90;99.90;;;;;;6072095;23;19921;-76
2023/06/05 05:29:43;;;;;;;;;;;12.90;99.90;;;;;;6072292;23;19928;-81
2023/06/05 05:32:08;;;;;;;;;;;13.00;99.90;;;;;;6070805;23;19921;-77
2023/06/05 05:34:34;;;;;;;;;;;13.00;99.90;;;;;;6071948;23;19932;-75
2023/06/05 05:36:59;;;;;;;;;;;13.10;99.90;;;;;;6071826;23;19922;-74
2023/06/05 05:39:25;;;;;;;;;;;13.00;99.90;;;;;;6071320;23;19992;-78
2023/06/05 05:41:53;;;;;;;;;;;13.00;99.90;;;;;;6097549;23;20019;-79
2023/06/05 05:44:19;;;;;;;;;;;13.00;99.90;;;;;;6067280;23;20379;-81
2023/06/05 05:46:48;;;;;;;;;;;12.90;99.90;;;;;;6065502;23;19956;-78
2023/06/05 05:49:13;;;;;;;;;;;12.90;99.90;;;;;;6065817;23;19930;-79
2023/06/05 05:51:40;;;;;;;;;;;12.90;99.90;;;;;;6067730;23;20327;-73
2023/06/05 05:54:05;;;;;;;;;;;12.90;99.90;;;;;;6063727;23;19922;-72
2023/06/05 05:56:31;;;;;;;;;;;12.90;99.90;;;;;;6065715;23;20008;-74
2023/06/05 05:58:56;;;;;;;;;;;12.90;99.90;;;;;;6065779;23;19994;-71
2023/06/05 06:01:22;;;;;;;;;;;12.90;99.90;;;;;;6065440;23;19918;-71
2023/06/05 06:03:48;;;;;;;;;;;13.00;99.90;;;;;;6064422;23;19980;-71
2023/06/05 06:06:13;;;;;;;;;;;13.00;99.90;;;;;;6064977;23;20681;-71
2023/06/05 06:08:39;;;;;;;;;;;13.00;99.90;;;;;;6066679;23;20250;-71
2023/06/05 06:11:06;;;;;;;;;;;13.10;99.90;;;;;;6062761;23;19932;-71
2023/06/05 06:13:33;;;;;;;;;;;13.10;99.90;;;;;;6064103;23;19996;-71
2023/06/05 06:15:59;;;;;;;;;;;13.20;99.90;;;;;;6061549;23;19958;-71
2023/06/05 06:18:25;;;;;;;;;;;13.20;99.90;;;;;;6061785;23;20323;-71
2023/06/05 06:20:51;;;;;;;;;;;13.40;99.90;;;;;;6060982;23;19917;-71
2023/06/05 06:23:16;;;;;;;;;;;13.30;99.90;;;;;;6062923;23;19922;-71
2023/06/05 06:25:42;;;;;;;;;;;13.40;99.90;;;;;;6062220;23;19928;-72
2023/06/05 06:28:07;;;;;;;;;;;13.50;99.90;;;;;;6063787;23;19922;-72
2023/06/05 06:30:33;;;;;;;;;;;13.40;99.90;;;;;;6065337;23;20284;-72
2023/06/05 06:32:59;;;;;;;;;;;13.60;99.90;;;;;;6066259;23;19922;-72
2023/06/05 06:35:29;;;;;;;;;;;13.60;99.90;;;;;;6064032;23;20220;-72
2023/06/05 06:37:54;;;;;;;;;;;13.70;99.90;;;;;;6067723;23;20339;-71
2023/06/05 06:40:20;;;;;;;;;;;13.70;99.90;;;;;;6067126;23;19949;-73
2023/06/05 06:42:46;;;;;;;;;;;13.70;99.90;;;;;;6067702;23;19918;-72
2023/06/05 06:45:11;;;;;;;;;;;13.80;99.90;;;;;;6095579;23;19921;-72
2023/06/05 06:47:37;;;;;;;;;;;13.80;99.90;;;;;;6071393;23;19993;-77
2023/06/05 06:50:02;;;;;;;;;;;13.70;99.90;;;;;;6095906;23;19929;-72
2023/06/05 06:52:28;;;;;;;;;;;13.80;99.90;;;;;;6071236;23;20398;-75
2023/06/05 06:54:54;;;;;;;;;;;13.90;99.90;;;;;;6070883;23;19932;-74
2023/06/05 06:57:19;;;;;;;;;;;14.00;99.90;;;;;;6070413;23;19949;-74
2023/06/05 06:59:45;;;;;;;;;;;14.10;99.90;;;;;;6071226;23;19921;-75
2023/06/05 07:02:13;;;;;;;;;;;14.30;99.90;;;;;;6095226;23;19917;-74
2023/06/05 07:04:40;;;;;;;;;;;14.30;99.90;;;;;;6072064;23;19925;-74
2023/06/05 07:07:07;;;;;;;;;;;14.30;99.90;;;;;;6071659;23;19976;-75
2023/06/05 07:09:33;;;;;;;;;;;14.20;99.90;;;;;;6097447;23;19921;-73
2023/06/05 07:12:04;;;;;;;;;;;14.30;99.90;;;;;;6099738;23;19928;-73
2023/06/05 07:14:30;;;;;;;;;;;14.30;99.90;;;;;;6074284;23;19928;-73
2023/06/05 07:17:01;;;;;;;;;;;14.30;99.90;;;;;;6098963;23;20319;-73
2023/06/05 07:19:28;;;;;;;;;;;14.30;99.90;;;;;;6097468;23;19921;-73
2023/06/05 07:21:57;;;;;;;;;;;14.40;99.90;;;;;;6096553;23;19921;-74
2023/06/05 07:24:24;;;;;;;;;;;14.40;99.90;;;;;;6095897;23;20339;-73
2023/06/05 07:26:51;;;;;;;;;;;14.40;99.90;;;;;;6070864;23;20000;-73
2023/06/05 07:29:17;;;;;;;;;;;14.40;99.90;;;;;;6097421;23;19917;-75
2023/06/05 07:31:43;;;;;;;;;;;14.50;99.90;;;;;;6095968;23;19968;-74
2023/06/05 07:34:08;;;;;;;;;;;14.50;99.90;;;;;;6096409;23;19917;-74
2023/06/05 07:36:36;;;;;;;;;;;14.60;99.90;;;;;;6096915;23;19982;-75
2023/06/05 07:39:02;;;;;;;;;;;14.60;99.90;;;;;;6095925;23;19921;-74
2023/06/05 07:41:27;;;;;;;;;;;14.70;99.90;;;;;;6096663;23;19984;-76
2023/06/05 07:43:53;;;;;;;;;;;14.80;99.90;;;;;;6095834;23;19921;-77
2023/06/05 07:46:18;;;;;;;;;;;15.00;99.90;;;;;;6105859;23;19913;-77
2023/06/05 07:48:44;;;;;;;;;;;15.10;99.90;;;;;;6072280;23;20025;-73
2023/06/05 07:51:10;;;;;;;;;;;15.10;99.90;;;;;;6093261;23;19921;-76
2023/06/05 07:53:35;;;;;;;;;;;15.20;99.90;;;;;;6070301;23;20000;-76
2023/06/05 07:56:01;;;;;;;;;;;15.40;99.90;;;;;;6096763;23;19929;-74
2023/06/05 07:58:29;;;;;;;;;;;15.40;99.90;;;;;;6070238;23;20315;-75
2023/06/05 08:00:56;;;;;;;;;;;15.40;99.90;;;;;;6070644;23;19928;-74
2023/06/05 08:03:23;;;;;;;;;;;15.30;99.90;;;;;;6096920;23;19921;-76
2023/06/05 08:05:49;;;;;;;;;;;15.40;99.90;;;;;;6095562;23;19966;-75
2023/06/05 08:08:15;;;;;;;;;;;15.30;99.90;;;;;;6096654;23;19921;-77
2023/06/05 08:10:41;;;;;;;;;;;15.40;99.90;;;;;;6096774;23;19944;-77
2023/06/05 08:13:10;;;;;;;;;;;15.50;99.90;;;;;;6069484;23;20345;-76
2023/06/05 08:15:36;;;;;;;;;;;15.40;99.90;;;;;;6070696;23;20012;-75
2023/06/05 08:18:02;;;;;;;;;;;15.50;99.90;;;;;;6096016;23;20346;-72
2023/06/05 08:20:28;;;;;;;;;;;15.50;99.90;;;;;;6070196;23;19980;-74
2023/06/05 08:22:57;;;;;;;;;;;15.70;99.90;;;;;;6096112;23;19944;-74
2023/06/05 08:25:23;;;;;;;;;;;15.80;99.90;;;;;;6096493;23;20343;-73
2023/06/05 08:27:49;;;;;;;;;;;15.70;99.90;;;;;;6095148;23;19928;-74
2023/06/05 08:30:18;;;;;;;;;;;15.90;99.90;;;;;;6072368;23;20327;-74
2023/06/05 08:32:43;;;;;;;;;;;16.00;99.90;;;;;;6072805;23;19964;-74
2023/06/05 08:35:10;;;;;;;;;;;16.10;99.90;;;;;;6097455;23;19923;-74
2023/06/05 08:37:36;;;;;;;;;;;16.20;99.90;;;;;;6072642;23;19968;-76
2023/06/05 08:40:10;;;;;;;;;;;16.10;99.90;;;;;;6098052;23;20260;-76
2023/06/05 08:42:37;;;;;;;;;;;16.20;99.90;;;;;;6071643;23;19917;-77
2023/06/05 08:45:12;;;;;;;;;;;16.30;99.90;;;;;;6072163;23;20327;-76
2023/06/05 08:47:41;;;;;;;;;;;16.40;99.90;;;;;;6097572;23;20327;-76
2023/06/05 08:50:08;;;;;;;;;;;16.50;99.90;;;;;;6072284;23;20792;-76
2023/06/05 08:52:35;;;;;;;;;;;16.50;99.90;;;;;;6072935;23;19960;-76
2023/06/05 08:55:02;;;;;;;;;;;16.50;99.90;;;;;;6071190;23;20409;-77
2023/06/05 08:57:28;;;;;;;;;;;16.40;99.90;;;;;;6072418;23;19921;-78
2023/06/05 08:59:54;;;;;;;;;;;16.60;99.90;;;;;;6072314;23;19925;-76
2023/06/05 09:02:19;;;;;;;;;;;16.80;99.90;;;;;;6097185;23;19988;-77
2023/06/05 09:04:45;;;;;;;;;;;17.10;99.90;;;;;;6072667;23;19925;-76
2023/06/05 09:07:11;;;;;;;;;;;17.10;99.90;;;;;;6071828;23;19981;-74
2023/06/05 09:09:42;;;;;;;;;;;17.30;99.90;;;;;;6096786;23;20322;-74
2023/06/05 09:12:13;;;;;;;;;;;17.50;99.90;;;;;;6071786;23;20005;-74
2023/06/05 09:14:38;;;;;;;;;;;17.80;99.90;;;;;;6072481;23;19917;-74
2023/06/05 09:17:05;;;;;;;;;;;18.00;99.30;;;;;;6070523;23;19933;-76
2023/06/05 09:19:38;;;;;;;;;;;18.10;99.20;;;;;;6072334;23;19921;-74
2023/06/05 09:22:05;;;;;;;;;;;18.10;99.00;;;;;;6072011;23;19928;-73
2023/06/05 09:24:34;;;;;;;;;;;18.40;99.00;;;;;;6097112;23;19946;-77
2023/06/05 09:27:00;;;;;;;;;;;19.10;98.90;;;;;;6097460;23;19925;-73
2023/06/05 09:29:31;;;;;;;;;;;19.40;97.60;;;;;;6097826;23;19921;-75
2023/06/05 09:32:01;;;;;;;;;;;19.40;96.80;;;;;;6096816;23;20343;-74
2023/06/05 09:34:29;;;;;;;;;;;19.30;96.90;;;;;;6097998;23;19928;-74
2023/06/05 09:36:57;;;;;;;;;;;19.30;97.20;;;;;;6096575;23;19921;-72
2023/06/05 09:39:24;;;;;;;;;;;19.50;96.80;;;;;;6071940;23;19921;-75
2023/06/05 09:41:53;;;;;;;;;;;19.60;97.00;;;;;;6071581;23;19969;-74
2023/06/05 09:44:23;;;;;;;;;;;19.70;97.00;;;;;;6067147;23;19944;-73
2023/06/05 09:46:55;;;;;;;;;;;20.00;96.80;;;;;;6080507;23;19928;-74
2023/06/05 09:49:30;;;;;;;;;;;20.00;95.80;;;;;;6067251;23;19925;-75
2023/06/05 09:51:57;;;;;;;;;;;20.10;95.80;;;;;;6068118;23;19929;-75
2023/06/05 09:54:25;;;;;;;;;;;20.20;94.80;;;;;;6067183;23;20355;-75
2023/06/05 09:56:53;;;;;;;;;;;20.40;95.20;;;;;;6067428;23;19929;-73
2023/06/05 09:59:22;;;;;;;;;;;20.80;96.10;;;;;;6068088;23;19921;-75
2023/06/05 10:01:52;;;;;;;;;;;20.70;95.20;;;;;;6067009;23;19969;-74
2023/06/05 10:04:26;;;;;;;;;;;20.50;95.90;;;;;;6065404;23;19929;-75
2023/06/05 10:06:58;;;;;;;;;;;20.70;95.90;;;;;;6067648;23;19922;-78
2023/06/05 10:09:26;;;;;;;;;;;20.60;95.90;;;;;;6069517;23;19929;-78
2023/06/05 10:11:52;;;;;;;;;;;21.10;94.80;;;;;;6066063;23;19969;-77
2023/06/05 10:14:18;;;;;;;;;;;21.30;94.60;;;;;;6065816;23;19930;-78
2023/06/05 10:16:44;;;;;;;;;;;21.30;94.30;;;;;;6066695;23;19929;-77
2023/06/05 10:19:11;;;;;;;;;;;20.90;93.90;;;;;;6064682;23;20325;-77
2023/06/05 10:21:37;;;;;;;;;;;20.90;94.70;;;;;;6068065;23;19921;-76
2023/06/05 10:24:04;;;;;;;;;;;21.30;94.60;;;;;;6067344;23;19922;-77
2023/06/05 10:26:48;;;;;;;;;;;21.50;93.60;;;;;;6067125;23;20025;-83
2023/06/05 10:29:22;;;;;;;;;;;21.60;93.90;;;;;;6066156;23;19929;-78
2023/06/05 10:31:59;;;;;;;;;;;21.80;92.90;;;;;;6068361;23;19921;-79
2023/06/05 10:34:30;;;;;;;;;;;21.30;93.40;;;;;;6065452;23;20203;-79
2023/06/05 10:37:21;;;;;;;;;;;21.30;94.20;;;;;;6066427;23;19930;-80
2023/06/05 10:39:48;;;;;;;;;;;21.00;93.80;;;;;;6068901;23;19922;-78
2023/06/05 10:42:23;;;;;;;;;;;20.80;94.30;;;;;;6067770;23;19918;-77
2023/06/05 10:44:49;;;;;;;;;;;20.80;95.40;;;;;;6071198;23;20327;-76
2023/06/05 10:47:33;;;;;;;;;;;21.30;94.80;;;;;;6092855;23;19968;-75
2023/06/05 10:50:20;;;;;;;;;;;21.70;94.30;;;;;;6096505;23;19921;-76
2023/06/05 10:52:49;;;;;;;;;;;22.00;93.40;;;;;;6097129;23;19921;-77
2023/06/05 10:55:15;;;;;;;;;;;21.80;93.40;;;;;;6095692;23;19953;-75
2023/06/05 10:58:00;;;;;;;;;;;21.60;94.80;;;;;;6071500;23;19921;-76
2023/06/05 11:00:29;;;;;;;;;;;22.20;93.70;;;;;;6096605;23;19921;-74
2023/06/05 11:02:58;;;;;;;;;;;22.40;94.10;;;;;;6097850;23;19924;-74
2023/06/05 11:05:23;;;;;;;;;;;22.90;93.50;;;;;;6073605;23;19921;-74
2023/06/05 11:08:08;;;;;;;;;;;23.00;93.90;;;;;;6100289;23;20231;-74
2023/06/05 11:10:34;;;;;;;;;;;22.50;93.60;;;;;;6073561;23;19973;-74
2023/06/05 11:13:00;;;;;;;;;;;21.90;93.00;;;;;;6073284;23;19921;-74
2023/06/05 11:15:28;;;;;;;;;;;21.80;94.00;;;;;;6070232;23;19956;-75
2023/06/05 11:17:54;;;;;;;;;;;21.60;93.20;;;;;;6071249;23;19932;-73
2023/06/05 11:20:22;;;;;;;;;;;21.40;93.70;;;;;;6070480;23;19922;-72
2023/06/05 11:22:57;;;;;;;;;;;21.30;94.50;;;;;;6069019;23;20000;-73
2023/06/05 11:25:32;;;;;;;;;;;21.40;94.00;;;;;;6070216;23;19921;-74
2023/06/05 11:28:01;;;;;;;;;;;21.20;94.00;;;;;;6070107;23;19921;-74
2023/06/05 11:30:34;;;;;;;;;;;21.70;93.90;;;;;;6069576;23;19921;-72
2023/06/05 11:33:09;;;;;;;;;;;22.10;94.00;;;;;;6095725;23;19956;-73
2023/06/05 11:35:35;;;;;;;;;;;22.70;94.20;;;;;;6069942;23;19925;-73
2023/06/05 11:38:07;;;;;;;;;;;22.80;93.20;;;;;;6068963;23;19992;-74
2023/06/05 11:40:33;;;;;;;;;;;22.70;93.50;;;;;;6070366;23;19921;-74
2023/06/05 11:43:09;;;;;;;;;;;22.40;93.40;;;;;;6069834;23;19921;-74
2023/06/05 11:45:36;;;;;;;;;;;22.20;93.30;;;;;;6069302;23;19925;-73
2023/06/05 11:48:11;;;;;;;;;;;22.20;93.90;;;;;;6070041;23;20002;-75
2023/06/05 11:50:38;;;;;;;;;;;22.00;93.40;;;;;;6069075;23;19921;-75
2023/06/05 11:53:04;;;;;;;;;;;21.60;93.60;;;;;;6095933;23;19923;-75
2023/06/05 11:55:42;;;;;;;;;;;21.30;93.90;;;;;;6096255;23;20334;-75
2023/06/05 11:58:09;;;;;;;;;;;21.80;95.40;;;;;;6094600;23;19932;-74
2023/06/05 12:00:37;;;;;;;;;;;21.80;94.60;;;;;;6096883;23;19931;-74
2023/06/05 12:03:06;;;;;;;;;;;21.60;94.10;;;;;;6096040;23;19921;-74
2023/06/05 12:05:35;;;;;;;;;;;21.80;93.70;;;;;;6070735;23;19929;-73
2023/06/05 12:08:20;;;;;;;;;;;21.90;93.80;;;;;;6116693;23;19951;-70
2023/06/05 12:10:45;;;;;;;;;;;21.90;94.80;;;;;;6127162;23;19932;-70
2023/06/05 12:13:13;;;;;;;;;;;22.10;93.80;;;;;;6099766;23;19920;-70
2023/06/05 12:15:38;;;;;;;;;;;22.20;93.10;;;;;;6100962;23;19921;-70
2023/06/05 12:18:04;;;;;;;;;;;22.40;92.80;;;;;;6100838;23;20141;-70
2023/06/05 12:20:37;;;;;;;;;;;22.30;93.10;;;;;;6126302;23;20305;-71
2023/06/05 12:23:06;;;;;;;;;;;22.30;93.30;;;;;;6124781;23;19924;-70
2023/06/05 12:25:32;;;;;;;;;;;22.20;92.60;;;;;;6123252;23;19954;-70
2023/06/05 12:27:57;;;;;;;;;;;22.30;93.60;;;;;;6121747;23;20301;-71
2023/06/05 12:30:23;;;;;;;;;;;22.40;93.10;;;;;;6124901;23;19920;-69
2023/06/05 12:32:48;;;;;;;;;;;22.20;92.60;;;;;;6097204;23;19952;-71
2023/06/05 12:35:17;;;;;;;;;;;22.10;93.50;;;;;;6124984;23;19928;-71
2023/06/05 12:37:45;;;;;;;;;;;22.50;93.30;;;;;;6124629;23;20345;-70
2023/06/05 12:40:11;;;;;;;;;;;22.30;93.00;;;;;;6125581;23;19999;-70
2023/06/05 12:42:37;;;;;;;;;;;22.00;94.00;;;;;;6126721;23;19951;-71
2023/06/05 12:45:04;;;;;;;;;;;21.70;93.70;;;;;;6127114;23;19928;-71
2023/06/05 12:47:33;;;;;;;;;;;21.60;94.00;;;;;;6126520;23;19925;-71
2023/06/05 12:49:58;;;;;;;;;;;21.90;93.60;;;;;;6124579;23;19948;-70
2023/06/05 12:52:27;;;;;;;;;;;21.90;93.60;;;;;;6099012;23;19920;-71
2023/06/05 12:54:53;;;;;;;;;;;21.70;94.10;;;;;;6099857;23;19964;-71
2023/06/05 12:57:21;;;;;;;;;;;21.90;93.80;;;;;;6100775;23;19932;-71
2023/06/05 12:59:47;;;;;;;;;;;21.80;93.40;;;;;;6127044;23;19932;-71
2023/06/05 13:02:13;;;;;;;;;;;21.60;95.00;;;;;;6125727;23;19917;-71
2023/06/05 13:04:39;;;;;;;;;;;22.00;93.30;;;;;;6127159;23;20338;-71
2023/06/05 13:07:05;;;;;;;;;;;21.60;93.10;;;;;;6126496;23;19920;-71
2023/06/05 13:09:32;;;;;;;;;;;21.30;93.10;;;;;;6126377;23;19967;-71
2023/06/05 13:11:59;;;;;;;;;;;21.10;94.70;;;;;;6126413;23;19928;-71
2023/06/05 13:14:28;;;;;;;;;;;21.20;94.60;;;;;;6126822;23;20229;-71
2023/06/05 13:16:53;;;;;;;;;;;21.10;93.60;;;;;;6123793;23;19920;-71
2023/06/05 13:19:22;;;;;;;;;;;21.30;93.90;;;;;;6126857;23;20279;-71
2023/06/05 13:21:51;;;;;;;;;;;21.50;94.30;;;;;;6126291;23;19956;-71
2023/06/05 13:24:16;;;;;;;;;;;21.40;93.60;;;;;;6125674;23;19928;-71
2023/06/05 13:26:42;;;;;;;;;;;21.50;93.40;;;;;;6126837;23;20383;-71
2023/06/05 13:29:08;;;;;;;;;;;21.50;93.20;;;;;;6125167;23;20253;-71
2023/06/05 13:31:37;;;;;;;;;;;21.50;94.30;;;;;;6124444;23;19921;-71
2023/06/05 13:34:05;;;;;;;;;;;21.70;93.20;;;;;;6126545;23;19999;-71
2023/06/05 13:36:31;;;;;;;;;;;21.60;93.70;;;;;;6124237;23;19949;-71
2023/06/05 13:38:57;;;;;;;;;;;21.50;93.60;;;;;;6100749;23;19921;-71
2023/06/05 13:41:23;;;;;;;;;;;21.30;93.60;;;;;;6126814;23;19968;-71
2023/06/05 13:43:48;;;;;;;;;;;20.90;93.60;;;;;;6123879;23;19921;-72
2023/06/05 13:46:14;;;;;;;;;;;21.00;93.80;;;;;;6100265;23;19921;-71
2023/06/05 13:48:39;;;;;;;;;;;21.10;93.30;;;;;;6126871;23;19921;-71
2023/06/05 13:51:07;;;;;;;;;;;21.00;93.60;;;;;;6125438;23;20361;-70
2023/06/05 13:53:36;;;;;;;;;;;21.20;94.20;;;;;;6121655;23;19928;-71
2023/06/05 13:56:02;;;;;;;;;;;21.10;94.20;;;;;;6099970;23;19925;-71
2023/06/05 13:58:28;;;;;;;;;;;21.20;93.50;;;;;;6124313;23;19921;-71
2023/06/05 14:00:54;;;;;;;;;;;21.10;93.70;;;;;;6123968;23;20404;-71
2023/06/05 14:03:20;;;;;;;;;;;21.30;93.20;;;;;;6100358;23;19992;-71
2023/06/05 14:05:46;;;;;;;;;;;21.10;93.10;;;;;;6123880;23;19925;-71
2023/06/05 14:08:11;;;;;;;;;;;20.90;93.40;;;;;;6124576;23;19949;-71
2023/06/05 14:10:37;;;;;;;;;;;21.00;93.20;;;;;;6100734;23;19921;-70
2023/06/05 14:13:03;;;;;;;;;;;21.00;93.70;;;;;;6123555;23;19920;-71
2023/06/05 14:15:30;;;;;;;;;;;20.80;93.40;;;;;;6100262;23;19925;-71
2023/06/05 14:17:55;;;;;;;;;;;20.80;93.40;;;;;;6126138;23;19972;-71